PWSweather.com
Personal Weather Stations
Station Observations
CANDIOTINO
Barrio Candioti Norte, Santa FeAR 3000

Barrio Candioti NorteSanta FeAR 3000

Lat: -31.632778, Lon: -60.695556

Elevation: 69

Station Type: WH-1081

http://www.eltiempoensantafe.com.ar

High Low Average
Temperature 54.7°F12.6°C 41.7°F5.4°C 45.4°F7.4°C
Dew Point 40.6°F4.8°C 37.8°F3.2°C 39.2°F4.0°C
Winds 9.2 mph 14.8 kmh Calm Calm 4.0 mph SSW6.4 kmh SSW
Wind Gusts 15.2 mph24.5 kmh 1.6 mph2.6 kmh 9.0 mph14.5 kmh
Humidity 88% 55% 79%
Pressure 30.32 in1026.8 mb 30.12 in1020.0 mb -
Precipitation 0.00 in0.0 mm - -
Hour Temp Dew Point Humidity Winds Wind Gusts Pressure Precip Precip Rate Daily Precip Total
12:00 AM 44.8°F7.1°C 39.6°F4.2°C 82% 5.4 mph WSW8.7 kmh WSW 11.4 mph18.3 kmh 30.12 in1020.0 mb 0.00 in0.0 mm 0.00 in0.0 mm 0.00 in0.0 mm
12:15 AM 44.8°F7.1°C 39.9°F4.4°C 83% 3.8 mph WSW6.1 kmh WSW 11.4 mph18.3 kmh 30.13 in1020.3 mb 0.00 in0.0 mm 0.00 in0.0 mm 0.00 in0.0 mm
12:30 AM 44.4°F6.9°C 39.9°F4.4°C 84% 5.4 mph W8.7 kmh W 10.7 mph17.2 kmh 30.13 in1020.3 mb 0.00 in0.0 mm 0.00 in0.0 mm 0.00 in0.0 mm
12:45 AM 43.9°F6.6°C 39.4°F4.1°C 84% 3.8 mph W6.1 kmh W 8.3 mph13.4 kmh 30.14 in1020.7 mb 0.00 in0.0 mm 0.00 in0.0 mm 0.00 in0.0 mm
01:00 AM 43.2°F6.2°C 39.0°F3.9°C 85% 3.1 mph WNW5.0 kmh WNW 12.1 mph19.5 kmh 30.14 in1020.7 mb 0.00 in0.0 mm 0.00 in0.0 mm 0.00 in0.0 mm
01:15 AM 43.0°F6.1°C 39.1°F3.9°C 86% 4.5 mph W7.2 kmh W 9.2 mph14.8 kmh 30.14 in1020.7 mb 0.00 in0.0 mm 0.00 in0.0 mm 0.00 in0.0 mm
01:30 AM 43.0°F6.1°C 39.1°F3.9°C 86% 5.4 mph W8.7 kmh W 10.7 mph17.2 kmh 30.15 in1021.0 mb 0.00 in0.0 mm 0.00 in0.0 mm 0.00 in0.0 mm
01:45 AM 43.0°F6.1°C 39.1°F3.9°C 86% 3.8 mph W6.1 kmh W 9.2 mph14.8 kmh 30.14 in1020.7 mb 0.00 in0.0 mm 0.00 in0.0 mm 0.00 in0.0 mm
02:00 AM 43.0°F6.1°C 39.1°F3.9°C 86% 5.4 mph W8.7 kmh W 10.7 mph17.2 kmh 30.15 in1021.0 mb 0.00 in0.0 mm 0.00 in0.0 mm 0.00 in0.0 mm
02:15 AM 43.0°F6.1°C 39.1°F3.9°C 86% 3.8 mph W6.1 kmh W 9.8 mph15.8 kmh 30.16 in1021.3 mb 0.00 in0.0 mm 0.00 in0.0 mm 0.00 in0.0 mm
02:30 AM 42.8°F6.0°C 38.9°F3.8°C 86% 6.0 mph W9.7 kmh W 10.7 mph17.2 kmh 30.16 in1021.3 mb 0.00 in0.0 mm 0.00 in0.0 mm 0.00 in0.0 mm
02:45 AM 42.6°F5.9°C 39.0°F3.9°C 87% 7.6 mph WNW12.2 kmh WNW 13.0 mph20.9 kmh 30.16 in1021.3 mb 0.00 in0.0 mm 0.00 in0.0 mm 0.00 in0.0 mm
03:00 AM 42.8°F6.0°C 38.9°F3.8°C 86% 5.4 mph WNW8.7 kmh WNW 10.7 mph17.2 kmh 30.15 in1021.0 mb 0.00 in0.0 mm 0.00 in0.0 mm 0.00 in0.0 mm
03:15 AM 42.8°F6.0°C 38.9°F3.8°C 86% 3.8 mph W6.1 kmh W 10.7 mph17.2 kmh 30.15 in1021.0 mb 0.00 in0.0 mm 0.00 in0.0 mm 0.00 in0.0 mm
03:30 AM 42.3°F5.7°C 38.7°F3.7°C 87% 3.8 mph NW6.1 kmh NW 12.1 mph19.5 kmh 30.15 in1021.0 mb 0.00 in0.0 mm 0.00 in0.0 mm 0.00 in0.0 mm
03:45 AM 42.1°F5.6°C 38.5°F3.6°C 87% 6.0 mph W9.7 kmh W 10.7 mph17.2 kmh 30.16 in1021.3 mb 0.00 in0.0 mm 0.00 in0.0 mm 0.00 in0.0 mm
04:00 AM 42.1°F5.6°C 38.5°F3.6°C 87% 4.5 mph W7.2 kmh W 9.8 mph15.8 kmh 30.15 in1021.0 mb 0.00 in0.0 mm 0.00 in0.0 mm 0.00 in0.0 mm
04:15 AM 42.1°F5.6°C 38.5°F3.6°C 87% 5.4 mph W8.7 kmh W 9.8 mph15.8 kmh 30.16 in1021.3 mb 0.00 in0.0 mm 0.00 in0.0 mm 0.00 in0.0 mm
04:30 AM 42.4°F5.8°C 39.1°F3.9°C 88% 5.4 mph W8.7 kmh W 9.2 mph14.8 kmh 30.16 in1021.3 mb 0.00 in0.0 mm 0.00 in0.0 mm 0.00 in0.0 mm
04:45 AM 42.3°F5.7°C 38.7°F3.7°C 87% 3.8 mph W6.1 kmh W 10.7 mph17.2 kmh 30.16 in1021.3 mb 0.00 in0.0 mm 0.00 in0.0 mm 0.00 in0.0 mm
05:00 AM 42.3°F5.7°C 38.7°F3.7°C 87% 6.0 mph W9.7 kmh W 11.4 mph18.3 kmh 30.17 in1021.7 mb 0.00 in0.0 mm 0.00 in0.0 mm 0.00 in0.0 mm
05:15 AM 42.4°F5.8°C 39.1°F3.9°C 88% 4.5 mph WNW7.2 kmh WNW 8.3 mph13.4 kmh 30.16 in1021.3 mb 0.00 in0.0 mm 0.00 in0.0 mm 0.00 in0.0 mm
05:30 AM 42.6°F5.9°C 39.0°F3.9°C 87% 3.1 mph W5.0 kmh W 9.2 mph14.8 kmh 30.16 in1021.3 mb 0.00 in0.0 mm 0.00 in0.0 mm 0.00 in0.0 mm
05:45 AM 42.6°F5.9°C 39.0°F3.9°C 87% 4.5 mph W7.2 kmh W 10.7 mph17.2 kmh 30.16 in1021.3 mb 0.00 in0.0 mm 0.00 in0.0 mm 0.00 in0.0 mm
06:00 AM 42.4°F5.8°C 38.9°F3.8°C 87% 3.8 mph WSW6.1 kmh WSW 9.2 mph14.8 kmh 30.17 in1021.7 mb 0.00 in0.0 mm 0.00 in0.0 mm 0.00 in0.0 mm
06:15 AM 42.4°F5.8°C 38.9°F3.8°C 87% 6.0 mph W9.7 kmh W 11.4 mph18.3 kmh 30.17 in1021.7 mb 0.00 in0.0 mm 0.00 in0.0 mm 0.00 in0.0 mm
06:30 AM 42.4°F5.8°C 38.9°F3.8°C 87% 5.4 mph W8.7 kmh W 9.8 mph15.8 kmh 30.18 in1022.0 mb 0.00 in0.0 mm 0.00 in0.0 mm 0.00 in0.0 mm
06:45 AM 42.6°F5.9°C 39.0°F3.9°C 87% 3.1 mph W5.0 kmh W 9.2 mph14.8 kmh 30.19 in1022.4 mb 0.00 in0.0 mm 0.00 in0.0 mm 0.00 in0.0 mm
07:00 AM 42.6°F5.9°C 39.0°F3.9°C 87% 3.1 mph W5.0 kmh W 10.7 mph17.2 kmh 30.19 in1022.4 mb 0.00 in0.0 mm 0.00 in0.0 mm 0.00 in0.0 mm
07:15 AM 42.8°F6.0°C 38.9°F3.8°C 86% 2.2 mph WSW3.5 kmh WSW 10.7 mph17.2 kmh 30.20 in1022.7 mb 0.00 in0.0 mm 0.00 in0.0 mm 0.00 in0.0 mm
07:30 AM 43.0°F6.1°C 39.1°F3.9°C 86% 3.1 mph SW5.0 kmh SW 7.6 mph12.2 kmh 30.20 in1022.7 mb 0.00 in0.0 mm 0.00 in0.0 mm 0.00 in0.0 mm
07:45 AM 43.0°F6.1°C 39.1°F3.9°C 86% 5.4 mph W8.7 kmh W 9.2 mph14.8 kmh 30.21 in1023.0 mb 0.00 in0.0 mm 0.00 in0.0 mm 0.00 in0.0 mm
08:00 AM 43.0°F6.1°C 38.8°F3.8°C 85% 5.4 mph W8.7 kmh W 7.6 mph12.2 kmh 30.22 in1023.4 mb 0.00 in0.0 mm 0.00 in0.0 mm 0.00 in0.0 mm
08:15 AM 43.3°F6.3°C 39.1°F3.9°C 85% 5.4 mph WSW8.7 kmh WSW 8.3 mph13.4 kmh 30.22 in1023.4 mb 0.00 in0.0 mm 0.00 in0.0 mm 0.00 in0.0 mm
08:30 AM 43.2°F6.2°C 39.0°F3.9°C 85% 6.0 mph W9.7 kmh W 10.7 mph17.2 kmh 30.22 in1023.4 mb 0.00 in0.0 mm 0.00 in0.0 mm 0.00 in0.0 mm
08:45 AM 43.3°F6.3°C 39.1°F3.9°C 85% 3.1 mph W5.0 kmh W 9.8 mph15.8 kmh 30.23 in1023.7 mb 0.00 in0.0 mm 0.00 in0.0 mm 0.00 in0.0 mm
09:00 AM 43.2°F6.2°C 38.7°F3.7°C 84% 6.0 mph W9.7 kmh W 9.8 mph15.8 kmh 30.23 in1023.7 mb 0.00 in0.0 mm 0.00 in0.0 mm 0.00 in0.0 mm
09:15 AM 43.5°F6.4°C 39.0°F3.9°C 84% 7.6 mph W12.2 kmh W 10.7 mph17.2 kmh 30.24 in1024.0 mb 0.00 in0.0 mm 0.00 in0.0 mm 0.00 in0.0 mm
09:30 AM 44.1°F6.7°C 39.5°F4.2°C 84% 3.8 mph WSW6.1 kmh WSW 9.2 mph14.8 kmh 30.24 in1024.0 mb 0.00 in0.0 mm 0.00 in0.0 mm 0.00 in0.0 mm
09:45 AM 44.4°F6.9°C 39.9°F4.4°C 84% 3.1 mph W5.0 kmh W 9.2 mph14.8 kmh 30.25 in1024.4 mb 0.00 in0.0 mm 0.00 in0.0 mm 0.00 in0.0 mm
10:00 AM 45.3°F7.4°C 40.2°F4.6°C 82% 6.0 mph W9.7 kmh W 10.7 mph17.2 kmh 30.26 in1024.7 mb 0.00 in0.0 mm 0.00 in0.0 mm 0.00 in0.0 mm
10:15 AM 45.5°F7.5°C 39.7°F4.3°C 80% 6.0 mph WSW9.7 kmh WSW 10.7 mph17.2 kmh 30.26 in1024.7 mb 0.00 in0.0 mm 0.00 in0.0 mm 0.00 in0.0 mm
10:30 AM 45.5°F7.5°C 39.0°F3.9°C 78% 6.0 mph SW9.7 kmh SW 13.0 mph20.9 kmh 30.27 in1025.1 mb 0.00 in0.0 mm 0.00 in0.0 mm 0.00 in0.0 mm
10:45 AM 45.3°F7.4°C 38.9°F3.8°C 78% 7.6 mph W12.2 kmh W 11.4 mph18.3 kmh 30.27 in1025.1 mb 0.00 in0.0 mm 0.00 in0.0 mm 0.00 in0.0 mm
11:00 AM 45.1°F7.3°C 39.0°F3.9°C 79% 5.4 mph WSW8.7 kmh WSW 9.8 mph15.8 kmh 30.27 in1025.1 mb 0.00 in0.0 mm 0.00 in0.0 mm 0.00 in0.0 mm
11:15 AM 45.5°F7.5°C 39.4°F4.1°C 79% 3.8 mph WNW6.1 kmh WNW 9.8 mph15.8 kmh 30.28 in1025.4 mb 0.00 in0.0 mm 0.00 in0.0 mm 0.00 in0.0 mm
11:30 AM 45.1°F7.3°C 38.7°F3.7°C 78% 5.4 mph W8.7 kmh W 10.7 mph17.2 kmh 30.27 in1025.1 mb 0.00 in0.0 mm 0.00 in0.0 mm 0.00 in0.0 mm
11:45 AM 45.1°F7.3°C 38.7°F3.7°C 78% 6.0 mph WSW9.7 kmh WSW 10.7 mph17.2 kmh 30.28 in1025.4 mb 0.00 in0.0 mm 0.00 in0.0 mm 0.00 in0.0 mm
12:00 PM 45.5°F7.5°C 38.7°F3.7°C 77% 3.1 mph SW5.0 kmh SW 6.9 mph11.1 kmh 30.29 in1025.7 mb 0.00 in0.0 mm 0.00 in0.0 mm 0.00 in0.0 mm
12:15 PM 45.5°F7.5°C 38.7°F3.7°C 77% 4.5 mph WSW7.2 kmh WSW 9.2 mph14.8 kmh 30.28 in1025.4 mb 0.00 in0.0 mm 0.00 in0.0 mm 0.00 in0.0 mm
12:30 PM 45.1°F7.3°C 38.4°F3.6°C 77% 4.5 mph WSW7.2 kmh WSW 9.8 mph15.8 kmh 30.28 in1025.4 mb 0.00 in0.0 mm 0.00 in0.0 mm 0.00 in0.0 mm
12:45 PM 45.5°F7.5°C 38.7°F3.7°C 77% 3.8 mph SW6.1 kmh SW 9.8 mph15.8 kmh 30.27 in1025.1 mb 0.00 in0.0 mm 0.00 in0.0 mm 0.00 in0.0 mm
01:00 PM 45.0°F7.2°C 37.9°F3.3°C 76% 2.2 mph W3.5 kmh W 8.3 mph13.4 kmh 30.27 in1025.1 mb 0.00 in0.0 mm 0.00 in0.0 mm 0.00 in0.0 mm
01:15 PM 45.3°F7.4°C 38.2°F3.4°C 76% 4.5 mph W7.2 kmh W 9.2 mph14.8 kmh 30.27 in1025.1 mb 0.00 in0.0 mm 0.00 in0.0 mm 0.00 in0.0 mm
01:30 PM 47.5°F8.6°C 40.3°F4.6°C 76% 1.6 mph WSW2.6 kmh WSW 5.4 mph8.7 kmh 30.26 in1024.7 mb 0.00 in0.0 mm 0.00 in0.0 mm 0.00 in0.0 mm
01:45 PM 49.6°F9.8°C 40.3°F4.6°C 70% 3.8 mph SSW6.1 kmh SSW 6.9 mph11.1 kmh 30.26 in1024.7 mb 0.00 in0.0 mm 0.00 in0.0 mm 0.00 in0.0 mm
02:00 PM 50.0°F10.0°C 39.9°F4.4°C 68% 1.6 mph S2.6 kmh S 5.4 mph8.7 kmh 30.25 in1024.4 mb 0.00 in0.0 mm 0.00 in0.0 mm 0.00 in0.0 mm
02:15 PM 51.4°F10.8°C 40.5°F4.7°C 66% 2.2 mph SSE3.5 kmh SSE 6.0 mph9.7 kmh 30.24 in1024.0 mb 0.00 in0.0 mm 0.00 in0.0 mm 0.00 in0.0 mm
02:30 PM 51.4°F10.8°C 40.5°F4.7°C 66% 2.2 mph SSW3.5 kmh SSW 8.3 mph13.4 kmh 30.23 in1023.7 mb 0.00 in0.0 mm 0.00 in0.0 mm 0.00 in0.0 mm
02:45 PM 54.1°F12.3°C 40.6°F4.8°C 60% 6.0 mph WSW9.7 kmh WSW 11.4 mph18.3 kmh 30.23 in1023.7 mb 0.00 in0.0 mm 0.00 in0.0 mm 0.00 in0.0 mm
03:00 PM 54.7°F12.6°C 38.8°F3.8°C 55% 6.9 mph SSW11.1 kmh SSW 9.8 mph15.8 kmh 30.22 in1023.4 mb 0.00 in0.0 mm 0.00 in0.0 mm 0.00 in0.0 mm
03:15 PM 54.3°F12.4°C 39.0°F3.9°C 56% 3.1 mph SW5.0 kmh SW 9.2 mph14.8 kmh 30.22 in1023.4 mb 0.00 in0.0 mm 0.00 in0.0 mm 0.00 in0.0 mm
03:30 PM 54.1°F12.3°C 38.3°F3.5°C 55% 4.5 mph S7.2 kmh S 12.1 mph19.5 kmh 30.22 in1023.4 mb 0.00 in0.0 mm 0.00 in0.0 mm 0.00 in0.0 mm
03:45 PM 54.5°F12.5°C 39.6°F4.2°C 57% 9.2 mph SSW14.8 kmh SSW 13.6 mph21.9 kmh 30.22 in1023.4 mb 0.00 in0.0 mm 0.00 in0.0 mm 0.00 in0.0 mm
04:00 PM 52.7°F11.5°C 40.1°F4.5°C 62% 6.9 mph S11.1 kmh S 15.2 mph24.5 kmh 30.21 in1023.0 mb 0.00 in0.0 mm 0.00 in0.0 mm 0.00 in0.0 mm
04:15 PM 52.3°F11.3°C 40.1°F4.5°C 63% 5.4 mph S8.7 kmh S 14.5 mph23.3 kmh 30.21 in1023.0 mb 0.00 in0.0 mm 0.00 in0.0 mm 0.00 in0.0 mm
04:30 PM 51.6°F10.9°C 39.8°F4.3°C 64% 7.6 mph SSE12.2 kmh SSE 13.0 mph20.9 kmh 30.21 in1023.0 mb 0.00 in0.0 mm 0.00 in0.0 mm 0.00 in0.0 mm
04:45 PM 51.4°F10.8°C 40.1°F4.5°C 65% 4.5 mph SSW7.2 kmh SSW 15.2 mph24.5 kmh 30.21 in1023.0 mb 0.00 in0.0 mm 0.00 in0.0 mm 0.00 in0.0 mm
05:00 PM 51.6°F10.9°C 40.2°F4.6°C 65% 6.0 mph S9.7 kmh S 13.6 mph21.9 kmh 30.21 in1023.0 mb 0.00 in0.0 mm 0.00 in0.0 mm 0.00 in0.0 mm
05:15 PM 51.6°F10.9°C 40.2°F4.6°C 65% 3.1 mph S5.0 kmh S 12.1 mph19.5 kmh 30.22 in1023.4 mb 0.00 in0.0 mm 0.00 in0.0 mm 0.00 in0.0 mm
05:30 PM 52.2°F11.2°C 40.0°F4.4°C 63% 3.8 mph S6.1 kmh S 8.3 mph13.4 kmh 30.22 in1023.4 mb 0.00 in0.0 mm 0.00 in0.0 mm 0.00 in0.0 mm
05:45 PM 51.1°F10.6°C 39.7°F4.3°C 65% 2.2 mph S3.5 kmh S 7.6 mph12.2 kmh 30.22 in1023.4 mb 0.00 in0.0 mm 0.00 in0.0 mm 0.00 in0.0 mm
06:00 PM 50.5°F10.3°C 39.6°F4.2°C 66% 3.1 mph SSE5.0 kmh SSE 6.0 mph9.7 kmh 30.22 in1023.4 mb 0.00 in0.0 mm 0.00 in0.0 mm 0.00 in0.0 mm
06:15 PM 47.8°F8.8°C 39.3°F4.1°C 72% 2.2 mph SE3.5 kmh SE 6.0 mph9.7 kmh 30.22 in1023.4 mb 0.00 in0.0 mm 0.00 in0.0 mm 0.00 in0.0 mm
06:30 PM 46.9°F8.3°C 39.4°F4.1°C 75% 3.1 mph SSE5.0 kmh SSE 6.0 mph9.7 kmh 30.23 in1023.7 mb 0.00 in0.0 mm 0.00 in0.0 mm 0.00 in0.0 mm
06:45 PM 46.8°F8.2°C 39.6°F4.2°C 76% 1.6 mph S2.6 kmh S 6.9 mph11.1 kmh 30.23 in1023.7 mb 0.00 in0.0 mm 0.00 in0.0 mm 0.00 in0.0 mm
07:00 PM 46.6°F8.1°C 39.4°F4.1°C 76% 3.1 mph S5.0 kmh S 6.0 mph9.7 kmh 30.23 in1023.7 mb 0.00 in0.0 mm 0.00 in0.0 mm 0.00 in0.0 mm
07:15 PM 46.2°F7.9°C 39.4°F4.1°C 77% 1.6 mph SE2.6 kmh SE 5.4 mph8.7 kmh 30.24 in1024.0 mb 0.00 in0.0 mm 0.00 in0.0 mm 0.00 in0.0 mm
07:30 PM 45.9°F7.7°C 39.7°F4.3°C 79% 3.1 mph SE5.0 kmh SE 5.4 mph8.7 kmh 30.25 in1024.4 mb 0.00 in0.0 mm 0.00 in0.0 mm 0.00 in0.0 mm
07:45 PM 45.5°F7.5°C 39.4°F4.1°C 79% 1.6 mph ESE2.6 kmh ESE 4.5 mph7.2 kmh 30.25 in1024.4 mb 0.00 in0.0 mm 0.00 in0.0 mm 0.00 in0.0 mm
08:00 PM 45.1°F7.3°C 39.3°F4.1°C 80% 2.2 mph ENE3.5 kmh ENE 6.0 mph9.7 kmh 30.26 in1024.7 mb 0.00 in0.0 mm 0.00 in0.0 mm 0.00 in0.0 mm
08:15 PM 45.0°F7.2°C 39.2°F4.0°C 80% 3.1 mph E5.0 kmh E 5.4 mph8.7 kmh 30.26 in1024.7 mb 0.00 in0.0 mm 0.00 in0.0 mm 0.00 in0.0 mm
08:30 PM 44.6°F7.0°C 39.1°F3.9°C 81% 0.7 mph ESE1.1 kmh ESE 4.5 mph7.2 kmh 30.26 in1024.7 mb 0.00 in0.0 mm 0.00 in0.0 mm 0.00 in0.0 mm
08:45 PM 44.4°F6.9°C 39.3°F4.1°C 82% Calm Calm 3.8 mph6.1 kmh 30.27 in1025.1 mb 0.00 in0.0 mm 0.00 in0.0 mm 0.00 in0.0 mm
09:00 PM 44.1°F6.7°C 39.2°F4.0°C 83% Calm Calm 3.1 mph5.0 kmh 30.27 in1025.1 mb 0.00 in0.0 mm 0.00 in0.0 mm 0.00 in0.0 mm
09:15 PM 43.9°F6.6°C 39.1°F3.9°C 83% 3.1 mph NE5.0 kmh NE 6.9 mph11.1 kmh 30.27 in1025.1 mb 0.00 in0.0 mm 0.00 in0.0 mm 0.00 in0.0 mm
09:30 PM 43.5°F6.4°C 38.7°F3.7°C 83% 0.7 mph ESE1.1 kmh ESE 4.5 mph7.2 kmh 30.28 in1025.4 mb 0.00 in0.0 mm 0.00 in0.0 mm 0.00 in0.0 mm
09:45 PM 43.5°F6.4°C 38.7°F3.7°C 83% 0.7 mph ESE1.1 kmh ESE 4.5 mph7.2 kmh 30.28 in1025.4 mb 0.00 in0.0 mm 0.00 in0.0 mm 0.00 in0.0 mm
10:00 PM 43.2°F6.2°C 38.4°F3.6°C 83% 1.6 mph NE2.6 kmh NE 4.5 mph7.2 kmh 30.28 in1025.4 mb 0.00 in0.0 mm 0.00 in0.0 mm 0.00 in0.0 mm
10:15 PM 43.0°F6.1°C 38.2°F3.4°C 83% 1.6 mph NE2.6 kmh NE 3.1 mph5.0 kmh 30.28 in1025.4 mb 0.00 in0.0 mm 0.00 in0.0 mm 0.00 in0.0 mm
10:30 PM 42.8°F6.0°C 38.3°F3.5°C 84% Calm Calm 2.2 mph3.5 kmh 30.30 in1026.1 mb 0.00 in0.0 mm 0.00 in0.0 mm 0.00 in0.0 mm
10:45 PM 42.4°F5.8°C 38.3°F3.5°C 85% Calm Calm 2.2 mph3.5 kmh 30.30 in1026.1 mb 0.00 in0.0 mm 0.00 in0.0 mm 0.00 in0.0 mm
11:00 PM 42.3°F5.7°C 38.4°F3.6°C 86% 0.7 mph E1.1 kmh E 1.6 mph2.6 kmh 30.30 in1026.1 mb 0.00 in0.0 mm 0.00 in0.0 mm 0.00 in0.0 mm
11:15 PM 42.1°F5.6°C 38.2°F3.4°C 86% Calm Calm 1.6 mph2.6 kmh 30.30 in1026.1 mb 0.00 in0.0 mm 0.00 in0.0 mm 0.00 in0.0 mm
11:30 PM 41.7°F5.4°C 37.8°F3.2°C 86% 0.7 mph E1.1 kmh E 1.6 mph2.6 kmh 30.31 in1026.4 mb 0.00 in0.0 mm 0.00 in0.0 mm 0.00 in0.0 mm
11:45 PM 42.1°F5.6°C 38.5°F3.6°C 87% Calm Calm 1.6 mph2.6 kmh 30.32 in1026.8 mb 0.00 in0.0 mm 0.00 in0.0 mm 0.00 in0.0 mm